sensor_id;sensor_type;location;lat;lon;timestamp;P1;durP1;ratioP1;P2;durP2;ratioP2
17850;SDS011;9051;51.548;14.348;2022-12-18T00:01:32;38.53;;;15.77;;
17850;SDS011;9051;51.548;14.348;2022-12-18T00:04:06;34.57;;;14.47;;
17850;SDS011;9051;51.548;14.348;2022-12-18T00:06:47;38.20;;;14.97;;
17850;SDS011;9051;51.548;14.348;2022-12-18T00:09:19;35.30;;;15.27;;
17850;SDS011;9051;51.548;14.348;2022-12-18T00:11:51;37.87;;;15.43;;
17850;SDS011;9051;51.548;14.348;2022-12-18T00:14:23;34.03;;;15.97;;
17850;SDS011;9051;51.548;14.348;2022-12-18T00:16:55;40.83;;;16.27;;
17850;SDS011;9051;51.548;14.348;2022-12-18T00:19:28;37.17;;;16.03;;
17850;SDS011;9051;51.548;14.348;2022-12-18T00:22:01;33.97;;;15.53;;
17850;SDS011;9051;51.548;14.348;2022-12-18T00:24:33;36.30;;;16.00;;
17850;SDS011;9051;51.548;14.348;2022-12-18T00:27:05;33.07;;;14.43;;
17850;SDS011;9051;51.548;14.348;2022-12-18T00:29:37;35.67;;;16.13;;
17850;SDS011;9051;51.548;14.348;2022-12-18T00:32:11;37.03;;;16.10;;
17850;SDS011;9051;51.548;14.348;2022-12-18T00:34:43;39.17;;;16.83;;
17850;SDS011;9051;51.548;14.348;2022-12-18T00:37:16;36.47;;;16.13;;
17850;SDS011;9051;51.548;14.348;2022-12-18T00:39:48;36.20;;;15.47;;
17850;SDS011;9051;51.548;14.348;2022-12-18T00:42:20;42.90;;;16.93;;
17850;SDS011;9051;51.548;14.348;2022-12-18T00:45:10;34.17;;;15.53;;
17850;SDS011;9051;51.548;14.348;2022-12-18T00:47:42;39.73;;;16.67;;
17850;SDS011;9051;51.548;14.348;2022-12-18T00:50:14;39.40;;;16.57;;
17850;SDS011;9051;51.548;14.348;2022-12-18T00:52:47;34.93;;;15.40;;
17850;SDS011;9051;51.548;14.348;2022-12-18T00:55:19;38.63;;;16.30;;
17850;SDS011;9051;51.548;14.348;2022-12-18T00:57:51;37.83;;;15.77;;
17850;SDS011;9051;51.548;14.348;2022-12-18T01:00:23;34.97;;;16.00;;
17850;SDS011;9051;51.548;14.348;2022-12-18T01:02:55;38.00;;;15.33;;
17850;SDS011;9051;51.548;14.348;2022-12-18T01:05:28;41.50;;;16.93;;
17850;SDS011;9051;51.548;14.348;2022-12-18T01:08:02;36.57;;;17.00;;
17850;SDS011;9051;51.548;14.348;2022-12-18T01:10:34;40.00;;;16.53;;
17850;SDS011;9051;51.548;14.348;2022-12-18T01:13:06;41.33;;;16.47;;
17850;SDS011;9051;51.548;14.348;2022-12-18T01:15:38;35.47;;;17.23;;
17850;SDS011;9051;51.548;14.348;2022-12-18T01:18:10;40.13;;;16.50;;
17850;SDS011;9051;51.548;14.348;2022-12-18T01:20:41;36.27;;;16.00;;
17850;SDS011;9051;51.548;14.348;2022-12-18T01:23:15;41.27;;;17.40;;
17850;SDS011;9051;51.548;14.348;2022-12-18T01:25:47;34.63;;;15.83;;
17850;SDS011;9051;51.548;14.348;2022-12-18T01:28:18;35.27;;;16.00;;
17850;SDS011;9051;51.548;14.348;2022-12-18T01:30:50;40.03;;;17.00;;
17850;SDS011;9051;51.548;14.348;2022-12-18T01:33:24;43.67;;;17.37;;
17850;SDS011;9051;51.548;14.348;2022-12-18T01:35:56;41.07;;;16.20;;
17850;SDS011;9051;51.548;14.348;2022-12-18T01:38:30;39.67;;;15.37;;
17850;SDS011;9051;51.548;14.348;2022-12-18T01:41:02;40.00;;;16.50;;
17850;SDS011;9051;51.548;14.348;2022-12-18T01:43:45;34.47;;;14.70;;
17850;SDS011;9051;51.548;14.348;2022-12-18T01:46:20;33.23;;;14.47;;
17850;SDS011;9051;51.548;14.348;2022-12-18T01:49:00;37.67;;;15.23;;
17850;SDS011;9051;51.548;14.348;2022-12-18T01:51:33;33.87;;;13.70;;
17850;SDS011;9051;51.548;14.348;2022-12-18T01:54:06;36.23;;;14.00;;
17850;SDS011;9051;51.548;14.348;2022-12-18T01:56:38;36.50;;;15.97;;
17850;SDS011;9051;51.548;14.348;2022-12-18T01:59:10;33.87;;;15.77;;
17850;SDS011;9051;51.548;14.348;2022-12-18T02:01:44;33.33;;;14.70;;
17850;SDS011;9051;51.548;14.348;2022-12-18T02:04:20;37.40;;;15.93;;
17850;SDS011;9051;51.548;14.348;2022-12-18T02:06:54;35.47;;;15.43;;
17850;SDS011;9051;51.548;14.348;2022-12-18T02:09:36;35.97;;;14.97;;
17850;SDS011;9051;51.548;14.348;2022-12-18T02:12:13;33.87;;;14.33;;
17850;SDS011;9051;51.548;14.348;2022-12-18T02:14:53;41.13;;;14.93;;
17850;SDS011;9051;51.548;14.348;2022-12-18T02:17:31;29.30;;;13.53;;
17850;SDS011;9051;51.548;14.348;2022-12-18T02:20:09;32.77;;;13.73;;
17850;SDS011;9051;51.548;14.348;2022-12-18T02:22:51;33.83;;;14.57;;
17850;SDS011;9051;51.548;14.348;2022-12-18T02:25:38;31.80;;;14.47;;
17850;SDS011;9051;51.548;14.348;2022-12-18T02:28:20;35.10;;;13.43;;
17850;SDS011;9051;51.548;14.348;2022-12-18T02:31:01;33.53;;;14.20;;
17850;SDS011;9051;51.548;14.348;2022-12-18T02:33:38;34.23;;;14.93;;
17850;SDS011;9051;51.548;14.348;2022-12-18T02:36:13;32.87;;;14.63;;
17850;SDS011;9051;51.548;14.348;2022-12-18T02:38:49;32.43;;;13.73;;
17850;SDS011;9051;51.548;14.348;2022-12-18T02:41:23;32.73;;;13.60;;
17850;SDS011;9051;51.548;14.348;2022-12-18T02:43:59;32.97;;;14.47;;
17850;SDS011;9051;51.548;14.348;2022-12-18T02:46:36;34.97;;;13.53;;
17850;SDS011;9051;51.548;14.348;2022-12-18T02:49:22;32.40;;;13.87;;
17850;SDS011;9051;51.548;14.348;2022-12-18T02:52:05;34.70;;;13.63;;
17850;SDS011;9051;51.548;14.348;2022-12-18T02:54:59;35.73;;;14.80;;
17850;SDS011;9051;51.548;14.348;2022-12-18T02:57:40;28.60;;;13.70;;
17850;SDS011;9051;51.548;14.348;2022-12-18T03:00:19;30.40;;;13.33;;
17850;SDS011;9051;51.548;14.348;2022-12-18T03:02:53;32.87;;;14.10;;
17850;SDS011;9051;51.548;14.348;2022-12-18T03:05:31;33.87;;;13.30;;
17850;SDS011;9051;51.548;14.348;2022-12-18T03:08:08;30.93;;;13.97;;
17850;SDS011;9051;51.548;14.348;2022-12-18T03:10:49;30.47;;;13.83;;
17850;SDS011;9051;51.548;14.348;2022-12-18T03:13:33;34.63;;;13.67;;
17850;SDS011;9051;51.548;14.348;2022-12-18T03:16:10;24.83;;;13.00;;
17850;SDS011;9051;51.548;14.348;2022-12-18T03:18:45;27.33;;;12.57;;
17850;SDS011;9051;51.548;14.348;2022-12-18T03:21:23;28.53;;;12.83;;
17850;SDS011;9051;51.548;14.348;2022-12-18T03:23:59;31.00;;;13.70;;
17850;SDS011;9051;51.548;14.348;2022-12-18T03:26:32;29.13;;;13.77;;
17850;SDS011;9051;51.548;14.348;2022-12-18T03:29:07;28.80;;;13.63;;
17850;SDS011;9051;51.548;14.348;2022-12-18T03:31:47;31.33;;;13.93;;
17850;SDS011;9051;51.548;14.348;2022-12-18T03:34:26;27.70;;;13.77;;
17850;SDS011;9051;51.548;14.348;2022-12-18T03:37:04;30.13;;;13.13;;
17850;SDS011;9051;51.548;14.348;2022-12-18T03:39:38;33.97;;;14.23;;
17850;SDS011;9051;51.548;14.348;2022-12-18T03:42:11;30.17;;;13.07;;
17850;SDS011;9051;51.548;14.348;2022-12-18T03:44:55;26.10;;;12.50;;
17850;SDS011;9051;51.548;14.348;2022-12-18T03:47:38;28.17;;;12.50;;
17850;SDS011;9051;51.548;14.348;2022-12-18T03:50:19;30.00;;;14.13;;
17850;SDS011;9051;51.548;14.348;2022-12-18T03:52:56;28.80;;;13.97;;
17850;SDS011;9051;51.548;14.348;2022-12-18T03:55:33;27.43;;;12.83;;
17850;SDS011;9051;51.548;14.348;2022-12-18T03:58:09;27.73;;;13.07;;
17850;SDS011;9051;51.548;14.348;2022-12-18T04:00:55;29.40;;;13.57;;
17850;SDS011;9051;51.548;14.348;2022-12-18T04:03:33;31.13;;;14.57;;
17850;SDS011;9051;51.548;14.348;2022-12-18T04:06:06;35.00;;;13.87;;
17850;SDS011;9051;51.548;14.348;2022-12-18T04:08:39;35.93;;;14.27;;
17850;SDS011;9051;51.548;14.348;2022-12-18T04:11:15;27.90;;;12.70;;
17850;SDS011;9051;51.548;14.348;2022-12-18T04:13:49;33.03;;;14.13;;
17850;SDS011;9051;51.548;14.348;2022-12-18T04:16:26;31.20;;;13.63;;
17850;SDS011;9051;51.548;14.348;2022-12-18T04:19:05;29.33;;;13.23;;
17850;SDS011;9051;51.548;14.348;2022-12-18T04:21:43;29.03;;;12.83;;
17850;SDS011;9051;51.548;14.348;2022-12-18T04:24:17;28.37;;;13.13;;
17850;SDS011;9051;51.548;14.348;2022-12-18T04:26:59;26.07;;;12.17;;
17850;SDS011;9051;51.548;14.348;2022-12-18T04:29:36;26.03;;;12.37;;
17850;SDS011;9051;51.548;14.348;2022-12-18T04:32:09;25.00;;;12.73;;
17850;SDS011;9051;51.548;14.348;2022-12-18T04:34:44;23.03;;;12.70;;
17850;SDS011;9051;51.548;14.348;2022-12-18T04:37:17;25.93;;;13.27;;
17850;SDS011;9051;51.548;14.348;2022-12-18T04:39:50;29.70;;;13.00;;
17850;SDS011;9051;51.548;14.348;2022-12-18T04:42:30;24.20;;;12.00;;
17850;SDS011;9051;51.548;14.348;2022-12-18T04:45:02;28.10;;;13.07;;
17850;SDS011;9051;51.548;14.348;2022-12-18T04:47:35;25.27;;;11.43;;
17850;SDS011;9051;51.548;14.348;2022-12-18T04:50:09;22.33;;;11.73;;
17850;SDS011;9051;51.548;14.348;2022-12-18T04:52:41;20.60;;;11.07;;
17850;SDS011;9051;51.548;14.348;2022-12-18T04:55:13;25.30;;;12.30;;
17850;SDS011;9051;51.548;14.348;2022-12-18T04:57:47;25.77;;;12.53;;
17850;SDS011;9051;51.548;14.348;2022-12-18T05:00:19;22.47;;;11.03;;
17850;SDS011;9051;51.548;14.348;2022-12-18T05:02:52;19.10;;;11.10;;
17850;SDS011;9051;51.548;14.348;2022-12-18T05:05:26;18.37;;;10.50;;
17850;SDS011;9051;51.548;14.348;2022-12-18T05:07:58;16.33;;;9.40;;
17850;SDS011;9051;51.548;14.348;2022-12-18T05:10:32;19.30;;;10.47;;
17850;SDS011;9051;51.548;14.348;2022-12-18T05:13:04;22.10;;;10.63;;
17850;SDS011;9051;51.548;14.348;2022-12-18T05:15:37;18.80;;;10.67;;
17850;SDS011;9051;51.548;14.348;2022-12-18T05:18:09;21.57;;;11.07;;
17850;SDS011;9051;51.548;14.348;2022-12-18T05:20:43;23.47;;;11.67;;
17850;SDS011;9051;51.548;14.348;2022-12-18T05:23:15;20.23;;;10.93;;
17850;SDS011;9051;51.548;14.348;2022-12-18T05:25:51;21.70;;;10.70;;
17850;SDS011;9051;51.548;14.348;2022-12-18T05:28:24;17.87;;;10.00;;
17850;SDS011;9051;51.548;14.348;2022-12-18T05:30:58;24.00;;;12.33;;
17850;SDS011;9051;51.548;14.348;2022-12-18T05:33:33;20.50;;;10.97;;
17850;SDS011;9051;51.548;14.348;2022-12-18T05:36:08;21.77;;;11.37;;
17850;SDS011;9051;51.548;14.348;2022-12-18T05:38:41;20.00;;;10.13;;
17850;SDS011;9051;51.548;14.348;2022-12-18T05:41:14;17.47;;;9.53;;
17850;SDS011;9051;51.548;14.348;2022-12-18T05:43:46;18.73;;;9.70;;
17850;SDS011;9051;51.548;14.348;2022-12-18T05:46:20;18.73;;;10.13;;
17850;SDS011;9051;51.548;14.348;2022-12-18T05:48:52;21.50;;;11.20;;
17850;SDS011;9051;51.548;14.348;2022-12-18T05:51:28;18.97;;;10.17;;
17850;SDS011;9051;51.548;14.348;2022-12-18T05:54:01;20.67;;;10.60;;
17850;SDS011;9051;51.548;14.348;2022-12-18T05:56:34;19.93;;;10.97;;
17850;SDS011;9051;51.548;14.348;2022-12-18T05:59:06;20.80;;;10.77;;
17850;SDS011;9051;51.548;14.348;2022-12-18T06:01:38;18.10;;;10.47;;
17850;SDS011;9051;51.548;14.348;2022-12-18T06:04:10;21.83;;;10.73;;
17850;SDS011;9051;51.548;14.348;2022-12-18T06:06:44;20.30;;;11.20;;
17850;SDS011;9051;51.548;14.348;2022-12-18T06:09:16;23.70;;;12.40;;
17850;SDS011;9051;51.548;14.348;2022-12-18T06:11:49;24.20;;;12.33;;
17850;SDS011;9051;51.548;14.348;2022-12-18T06:14:23;24.93;;;12.70;;
17850;SDS011;9051;51.548;14.348;2022-12-18T06:16:55;19.63;;;11.17;;
17850;SDS011;9051;51.548;14.348;2022-12-18T06:19:27;21.07;;;11.97;;
17850;SDS011;9051;51.548;14.348;2022-12-18T06:22:01;21.80;;;11.20;;
17850;SDS011;9051;51.548;14.348;2022-12-18T06:24:34;20.67;;;10.53;;
17850;SDS011;9051;51.548;14.348;2022-12-18T06:27:05;20.67;;;10.93;;
17850;SDS011;9051;51.548;14.348;2022-12-18T06:29:37;15.13;;;10.37;;
17850;SDS011;9051;51.548;14.348;2022-12-18T06:32:10;17.80;;;10.10;;
17850;SDS011;9051;51.548;14.348;2022-12-18T06:34:42;20.53;;;10.97;;
17850;SDS011;9051;51.548;14.348;2022-12-18T06:37:15;16.53;;;10.03;;
17850;SDS011;9051;51.548;14.348;2022-12-18T06:39:47;16.70;;;9.87;;
17850;SDS011;9051;51.548;14.348;2022-12-18T06:42:22;19.77;;;10.87;;
17850;SDS011;9051;51.548;14.348;2022-12-18T06:44:55;16.33;;;9.93;;
17850;SDS011;9051;51.548;14.348;2022-12-18T06:47:27;15.97;;;9.80;;
17850;SDS011;9051;51.548;14.348;2022-12-18T06:49:59;20.03;;;10.23;;
17850;SDS011;9051;51.548;14.348;2022-12-18T06:52:34;19.53;;;10.20;;
17850;SDS011;9051;51.548;14.348;2022-12-18T06:55:09;17.87;;;10.63;;
17850;SDS011;9051;51.548;14.348;2022-12-18T06:57:43;19.27;;;10.27;;
17850;SDS011;9051;51.548;14.348;2022-12-18T07:00:15;18.67;;;10.73;;
17850;SDS011;9051;51.548;14.348;2022-12-18T07:02:47;22.13;;;10.90;;
17850;SDS011;9051;51.548;14.348;2022-12-18T07:05:19;20.73;;;10.63;;
17850;SDS011;9051;51.548;14.348;2022-12-18T07:07:53;18.07;;;10.20;;
17850;SDS011;9051;51.548;14.348;2022-12-18T07:10:26;19.00;;;10.13;;
17850;SDS011;9051;51.548;14.348;2022-12-18T07:12:57;18.17;;;9.77;;
17850;SDS011;9051;51.548;14.348;2022-12-18T07:15:29;17.57;;;9.90;;
17850;SDS011;9051;51.548;14.348;2022-12-18T07:18:01;19.27;;;10.50;;
17850;SDS011;9051;51.548;14.348;2022-12-18T07:20:33;19.33;;;10.00;;
17850;SDS011;9051;51.548;14.348;2022-12-18T07:23:07;19.57;;;10.20;;
17850;SDS011;9051;51.548;14.348;2022-12-18T07:25:39;18.47;;;10.87;;
17850;SDS011;9051;51.548;14.348;2022-12-18T07:28:12;18.90;;;10.60;;
17850;SDS011;9051;51.548;14.348;2022-12-18T07:30:44;17.50;;;10.03;;
17850;SDS011;9051;51.548;14.348;2022-12-18T07:33:16;20.10;;;10.03;;
17850;SDS011;9051;51.548;14.348;2022-12-18T07:35:48;19.97;;;10.97;;
17850;SDS011;9051;51.548;14.348;2022-12-18T07:38:22;19.77;;;11.00;;
17850;SDS011;9051;51.548;14.348;2022-12-18T07:40:54;20.40;;;10.23;;
17850;SDS011;9051;51.548;14.348;2022-12-18T07:43:31;18.70;;;10.80;;
17850;SDS011;9051;51.548;14.348;2022-12-18T07:46:04;20.20;;;10.70;;
17850;SDS011;9051;51.548;14.348;2022-12-18T07:48:36;19.17;;;10.33;;
17850;SDS011;9051;51.548;14.348;2022-12-18T07:51:08;19.03;;;10.17;;
17850;SDS011;9051;51.548;14.348;2022-12-18T07:53:45;17.43;;;10.33;;
17850;SDS011;9051;51.548;14.348;2022-12-18T07:56:17;17.70;;;10.47;;
17850;SDS011;9051;51.548;14.348;2022-12-18T07:58:48;19.53;;;10.20;;
17850;SDS011;9051;51.548;14.348;2022-12-18T08:01:20;16.23;;;9.37;;
17850;SDS011;9051;51.548;14.348;2022-12-18T08:03:52;21.53;;;11.07;;
17850;SDS011;9051;51.548;14.348;2022-12-18T08:06:24;19.20;;;10.67;;
17850;SDS011;9051;51.548;14.348;2022-12-18T08:08:58;17.37;;;9.93;;
17850;SDS011;9051;51.548;14.348;2022-12-18T08:11:30;18.90;;;10.80;;
17850;SDS011;9051;51.548;14.348;2022-12-18T08:14:01;22.30;;;11.53;;
17850;SDS011;9051;51.548;14.348;2022-12-18T08:16:34;21.43;;;11.23;;
17850;SDS011;9051;51.548;14.348;2022-12-18T08:19:05;20.87;;;11.07;;
17850;SDS011;9051;51.548;14.348;2022-12-18T08:21:40;18.30;;;10.63;;
17850;SDS011;9051;51.548;14.348;2022-12-18T08:24:14;20.43;;;10.67;;
17850;SDS011;9051;51.548;14.348;2022-12-18T08:26:49;20.20;;;10.37;;
17850;SDS011;9051;51.548;14.348;2022-12-18T08:29:21;18.57;;;10.60;;
17850;SDS011;9051;51.548;14.348;2022-12-18T08:31:53;21.70;;;12.23;;
17850;SDS011;9051;51.548;14.348;2022-12-18T08:34:25;19.20;;;10.77;;
17850;SDS011;9051;51.548;14.348;2022-12-18T08:36:57;19.37;;;11.67;;
17850;SDS011;9051;51.548;14.348;2022-12-18T08:39:30;24.97;;;15.17;;
17850;SDS011;9051;51.548;14.348;2022-12-18T08:42:02;21.47;;;14.80;;
17850;SDS011;9051;51.548;14.348;2022-12-18T08:44:52;20.33;;;11.10;;
17850;SDS011;9051;51.548;14.348;2022-12-18T08:47:24;19.80;;;10.27;;
17850;SDS011;9051;51.548;14.348;2022-12-18T08:49:56;19.17;;;11.47;;
17850;SDS011;9051;51.548;14.348;2022-12-18T08:52:28;20.50;;;10.53;;
17850;SDS011;9051;51.548;14.348;2022-12-18T08:55:04;21.13;;;11.57;;
17850;SDS011;9051;51.548;14.348;2022-12-18T08:57:36;20.70;;;10.50;;
17850;SDS011;9051;51.548;14.348;2022-12-18T09:00:09;20.10;;;10.93;;
17850;SDS011;9051;51.548;14.348;2022-12-18T09:02:43;18.90;;;10.20;;
17850;SDS011;9051;51.548;14.348;2022-12-18T09:05:15;18.87;;;10.57;;
17850;SDS011;9051;51.548;14.348;2022-12-18T09:07:47;18.90;;;10.40;;
17850;SDS011;9051;51.548;14.348;2022-12-18T09:10:20;17.27;;;10.23;;
17850;SDS011;9051;51.548;14.348;2022-12-18T09:12:52;15.57;;;9.20;;
17850;SDS011;9051;51.548;14.348;2022-12-18T09:15:26;19.57;;;10.27;;
17850;SDS011;9051;51.548;14.348;2022-12-18T09:17:58;15.77;;;8.87;;
17850;SDS011;9051;51.548;14.348;2022-12-18T09:20:30;15.90;;;8.83;;
17850;SDS011;9051;51.548;14.348;2022-12-18T09:23:02;17.27;;;9.43;;
17850;SDS011;9051;51.548;14.348;2022-12-18T09:25:36;16.60;;;9.10;;
17850;SDS011;9051;51.548;14.348;2022-12-18T09:28:10;16.63;;;9.97;;
17850;SDS011;9051;51.548;14.348;2022-12-18T09:30:47;17.17;;;9.90;;
17850;SDS011;9051;51.548;14.348;2022-12-18T09:33:20;15.57;;;9.00;;
17850;SDS011;9051;51.548;14.348;2022-12-18T09:35:52;17.60;;;9.63;;
17850;SDS011;9051;51.548;14.348;2022-12-18T09:38:24;16.53;;;10.37;;
17850;SDS011;9051;51.548;14.348;2022-12-18T09:41:03;16.20;;;9.77;;
17850;SDS011;9051;51.548;14.348;2022-12-18T09:43:45;16.17;;;9.10;;
17850;SDS011;9051;51.548;14.348;2022-12-18T09:46:20;17.23;;;9.83;;
17850;SDS011;9051;51.548;14.348;2022-12-18T09:48:59;14.47;;;8.87;;
17850;SDS011;9051;51.548;14.348;2022-12-18T09:51:36;18.40;;;10.40;;
17850;SDS011;9051;51.548;14.348;2022-12-18T09:54:11;16.60;;;10.00;;
17850;SDS011;9051;51.548;14.348;2022-12-18T09:56:48;16.00;;;8.97;;
17850;SDS011;9051;51.548;14.348;2022-12-18T09:59:30;13.83;;;9.27;;
17850;SDS011;9051;51.548;14.348;2022-12-18T10:02:13;13.40;;;8.60;;
17850;SDS011;9051;51.548;14.348;2022-12-18T10:04:49;16.03;;;9.90;;
17850;SDS011;9051;51.548;14.348;2022-12-18T10:07:45;16.27;;;9.80;;
17850;SDS011;9051;51.548;14.348;2022-12-18T10:10:30;18.23;;;9.53;;
17850;SDS011;9051;51.548;14.348;2022-12-18T10:13:12;17.03;;;9.50;;
17850;SDS011;9051;51.548;14.348;2022-12-18T10:15:55;14.67;;;8.93;;
17850;SDS011;9051;51.548;14.348;2022-12-18T10:18:39;15.67;;;8.67;;
17850;SDS011;9051;51.548;14.348;2022-12-18T10:21:30;19.60;;;13.07;;
17850;SDS011;9051;51.548;14.348;2022-12-18T10:24:12;17.33;;;8.70;;
17850;SDS011;9051;51.548;14.348;2022-12-18T10:26:53;18.37;;;11.30;;
17850;SDS011;9051;51.548;14.348;2022-12-18T10:29:33;19.13;;;13.83;;
17850;SDS011;9051;51.548;14.348;2022-12-18T10:32:06;19.23;;;14.30;;
17850;SDS011;9051;51.548;14.348;2022-12-18T10:34:41;17.33;;;11.00;;
17850;SDS011;9051;51.548;14.348;2022-12-18T10:37:17;29.40;;;21.20;;
17850;SDS011;9051;51.548;14.348;2022-12-18T10:40:04;18.97;;;10.03;;
17850;SDS011;9051;51.548;14.348;2022-12-18T10:42:39;20.87;;;13.73;;
17850;SDS011;9051;51.548;14.348;2022-12-18T10:45:16;13.33;;;9.37;;
17850;SDS011;9051;51.548;14.348;2022-12-18T10:47:49;15.93;;;9.40;;
17850;SDS011;9051;51.548;14.348;2022-12-18T10:50:24;14.87;;;9.90;;
17850;SDS011;9051;51.548;14.348;2022-12-18T10:53:00;16.70;;;9.40;;
17850;SDS011;9051;51.548;14.348;2022-12-18T10:55:34;12.53;;;8.63;;
17850;SDS011;9051;51.548;14.348;2022-12-18T10:58:23;15.30;;;9.67;;
17850;SDS011;9051;51.548;14.348;2022-12-18T11:01:05;14.57;;;8.30;;
17850;SDS011;9051;51.548;14.348;2022-12-18T11:03:41;13.93;;;8.80;;
17850;SDS011;9051;51.548;14.348;2022-12-18T11:06:15;18.27;;;11.80;;
17850;SDS011;9051;51.548;14.348;2022-12-18T11:08:57;14.07;;;9.00;;
17850;SDS011;9051;51.548;14.348;2022-12-18T11:11:31;15.40;;;10.33;;
17850;SDS011;9051;51.548;14.348;2022-12-18T11:14:04;18.83;;;10.97;;
17850;SDS011;9051;51.548;14.348;2022-12-18T11:16:45;16.80;;;9.97;;
17850;SDS011;9051;51.548;14.348;2022-12-18T11:19:26;15.60;;;9.17;;
17850;SDS011;9051;51.548;14.348;2022-12-18T11:22:17;14.37;;;9.23;;
17850;SDS011;9051;51.548;14.348;2022-12-18T11:24:52;15.37;;;9.67;;
17850;SDS011;9051;51.548;14.348;2022-12-18T11:27:27;17.37;;;10.73;;
17850;SDS011;9051;51.548;14.348;2022-12-18T11:30:07;15.97;;;9.43;;
17850;SDS011;9051;51.548;14.348;2022-12-18T11:32:43;16.63;;;9.87;;
17850;SDS011;9051;51.548;14.348;2022-12-18T11:35:21;20.10;;;10.87;;
17850;SDS011;9051;51.548;14.348;2022-12-18T11:37:59;17.37;;;10.53;;
17850;SDS011;9051;51.548;14.348;2022-12-18T11:40:36;25.87;;;14.60;;
17850;SDS011;9051;51.548;14.348;2022-12-18T11:43:13;18.10;;;10.33;;
17850;SDS011;9051;51.548;14.348;2022-12-18T11:45:49;13.70;;;8.77;;
17850;SDS011;9051;51.548;14.348;2022-12-18T11:48:26;17.83;;;9.73;;
17850;SDS011;9051;51.548;14.348;2022-12-18T11:51:04;16.20;;;9.03;;
17850;SDS011;9051;51.548;14.348;2022-12-18T11:53:43;14.27;;;9.13;;
17850;SDS011;9051;51.548;14.348;2022-12-18T11:56:23;14.97;;;8.87;;
17850;SDS011;9051;51.548;14.348;2022-12-18T11:59:04;17.43;;;9.77;;
17850;SDS011;9051;51.548;14.348;2022-12-18T12:01:48;16.67;;;9.23;;
17850;SDS011;9051;51.548;14.348;2022-12-18T12:04:30;15.33;;;9.53;;
17850;SDS011;9051;51.548;14.348;2022-12-18T12:07:25;16.03;;;9.33;;
17850;SDS011;9051;51.548;14.348;2022-12-18T12:10:11;15.00;;;9.03;;
17850;SDS011;9051;51.548;14.348;2022-12-18T12:13:00;14.87;;;9.33;;
17850;SDS011;9051;51.548;14.348;2022-12-18T12:15:43;13.97;;;8.70;;
17850;SDS011;9051;51.548;14.348;2022-12-18T12:18:28;16.60;;;9.37;;
17850;SDS011;9051;51.548;14.348;2022-12-18T12:21:12;15.17;;;9.07;;
17850;SDS011;9051;51.548;14.348;2022-12-18T12:23:55;14.03;;;8.50;;
17850;SDS011;9051;51.548;14.348;2022-12-18T12:26:35;14.87;;;8.97;;
17850;SDS011;9051;51.548;14.348;2022-12-18T12:29:23;14.40;;;9.23;;
17850;SDS011;9051;51.548;14.348;2022-12-18T12:32:11;14.23;;;9.10;;
17850;SDS011;9051;51.548;14.348;2022-12-18T12:34:54;15.73;;;9.80;;
17850;SDS011;9051;51.548;14.348;2022-12-18T12:37:41;15.00;;;9.70;;
17850;SDS011;9051;51.548;14.348;2022-12-18T12:40:22;13.37;;;8.63;;
17850;SDS011;9051;51.548;14.348;2022-12-18T12:42:59;14.97;;;8.40;;
17850;SDS011;9051;51.548;14.348;2022-12-18T12:45:45;14.03;;;8.50;;
17850;SDS011;9051;51.548;14.348;2022-12-18T12:48:23;13.00;;;8.43;;
17850;SDS011;9051;51.548;14.348;2022-12-18T12:51:15;14.63;;;8.37;;
17850;SDS011;9051;51.548;14.348;2022-12-18T12:53:52;13.23;;;8.53;;
17850;SDS011;9051;51.548;14.348;2022-12-18T12:56:30;15.20;;;9.40;;
17850;SDS011;9051;51.548;14.348;2022-12-18T12:59:10;25.67;;;14.90;;
17850;SDS011;9051;51.548;14.348;2022-12-18T13:01:52;20.87;;;13.30;;
17850;SDS011;9051;51.548;14.348;2022-12-18T13:04:32;15.93;;;11.27;;
17850;SDS011;9051;51.548;14.348;2022-12-18T13:07:10;13.83;;;8.77;;
17850;SDS011;9051;51.548;14.348;2022-12-18T13:13:07;15.53;;;8.53;;
17850;SDS011;9051;51.548;14.348;2022-12-18T13:15:40;16.23;;;9.97;;
17850;SDS011;9051;51.548;14.348;2022-12-18T13:18:15;13.53;;;8.83;;
17850;SDS011;9051;51.548;14.348;2022-12-18T13:20:50;14.87;;;9.07;;
17850;SDS011;9051;51.548;14.348;2022-12-18T13:23:33;15.70;;;8.40;;
17850;SDS011;9051;51.548;14.348;2022-12-18T13:29:05;13.77;;;9.87;;
17850;SDS011;9051;51.548;14.348;2022-12-18T13:31:57;15.10;;;9.13;;
17850;SDS011;9051;51.548;14.348;2022-12-18T13:34:31;17.13;;;9.20;;
17850;SDS011;9051;51.548;14.348;2022-12-18T13:43:32;14.60;;;9.70;;
17850;SDS011;9051;51.548;14.348;2022-12-18T13:46:19;17.03;;;10.03;;
17850;SDS011;9051;51.548;14.348;2022-12-18T13:52:45;16.07;;;9.70;;
17850;SDS011;9051;51.548;14.348;2022-12-18T13:55:17;18.57;;;10.20;;
17850;SDS011;9051;51.548;14.348;2022-12-18T13:58:02;19.90;;;10.60;;
17850;SDS011;9051;51.548;14.348;2022-12-18T14:00:41;17.37;;;10.07;;
17850;SDS011;9051;51.548;14.348;2022-12-18T14:03:18;17.20;;;10.93;;
17850;SDS011;9051;51.548;14.348;2022-12-18T14:05:56;17.33;;;10.60;;
17850;SDS011;9051;51.548;14.348;2022-12-18T14:08:33;17.50;;;9.80;;
17850;SDS011;9051;51.548;14.348;2022-12-18T14:13:52;16.43;;;9.53;;
17850;SDS011;9051;51.548;14.348;2022-12-18T14:16:26;18.23;;;9.83;;
17850;SDS011;9051;51.548;14.348;2022-12-18T14:19:00;16.13;;;9.73;;
17850;SDS011;9051;51.548;14.348;2022-12-18T14:21:34;16.53;;;9.73;;
17850;SDS011;9051;51.548;14.348;2022-12-18T14:24:06;16.20;;;9.97;;
17850;SDS011;9051;51.548;14.348;2022-12-18T14:26:46;18.80;;;10.43;;
17850;SDS011;9051;51.548;14.348;2022-12-18T14:29:22;19.33;;;10.33;;
17850;SDS011;9051;51.548;14.348;2022-12-18T14:32:06;18.80;;;10.47;;
17850;SDS011;9051;51.548;14.348;2022-12-18T14:34:43;18.63;;;10.27;;
17850;SDS011;9051;51.548;14.348;2022-12-18T14:37:16;20.00;;;10.93;;
17850;SDS011;9051;51.548;14.348;2022-12-18T14:39:52;16.83;;;10.63;;
17850;SDS011;9051;51.548;14.348;2022-12-18T14:42:26;17.93;;;10.10;;
17850;SDS011;9051;51.548;14.348;2022-12-18T14:48:11;18.97;;;10.73;;
17850;SDS011;9051;51.548;14.348;2022-12-18T14:50:55;18.97;;;9.70;;
17850;SDS011;9051;51.548;14.348;2022-12-18T14:53:34;20.30;;;10.70;;
17850;SDS011;9051;51.548;14.348;2022-12-18T14:56:13;18.57;;;10.33;;
17850;SDS011;9051;51.548;14.348;2022-12-18T14:58:48;18.43;;;9.70;;
17850;SDS011;9051;51.548;14.348;2022-12-18T15:01:24;20.57;;;11.07;;
17850;SDS011;9051;51.548;14.348;2022-12-18T15:04:02;20.83;;;10.57;;
17850;SDS011;9051;51.548;14.348;2022-12-18T15:06:37;21.50;;;11.57;;
17850;SDS011;9051;51.548;14.348;2022-12-18T15:09:20;20.63;;;10.93;;
17850;SDS011;9051;51.548;14.348;2022-12-18T15:11:55;20.37;;;11.37;;
17850;SDS011;9051;51.548;14.348;2022-12-18T15:14:34;22.40;;;11.37;;
17850;SDS011;9051;51.548;14.348;2022-12-18T15:17:14;21.43;;;11.50;;
17850;SDS011;9051;51.548;14.348;2022-12-18T15:19:50;23.27;;;11.10;;
17850;SDS011;9051;51.548;14.348;2022-12-18T15:22:27;23.50;;;11.33;;
17850;SDS011;9051;51.548;14.348;2022-12-18T15:25:02;19.23;;;11.57;;
17850;SDS011;9051;51.548;14.348;2022-12-18T15:27:51;21.77;;;11.17;;
17850;SDS011;9051;51.548;14.348;2022-12-18T15:30:24;22.33;;;11.67;;
17850;SDS011;9051;51.548;14.348;2022-12-18T15:35:57;27.73;;;12.10;;
17850;SDS011;9051;51.548;14.348;2022-12-18T15:38:32;24.27;;;12.00;;
17850;SDS011;9051;51.548;14.348;2022-12-18T15:41:05;21.43;;;11.30;;
17850;SDS011;9051;51.548;14.348;2022-12-18T15:43:43;23.10;;;11.27;;